sensor_id;sensor_type;location;lat;lon;timestamp;P1;durP1;ratioP1;P2;durP2;ratioP2
70052;SDS011;57398;52.032;4.376;2022-09-30T00:01:02;12.45;;;5.78;;
70052;SDS011;57398;52.032;4.376;2022-09-30T00:03:30;10.10;;;5.13;;
70052;SDS011;57398;52.032;4.376;2022-09-30T00:06:00;9.68;;;4.85;;
70052;SDS011;57398;52.032;4.376;2022-09-30T00:08:33;8.45;;;4.50;;
70052;SDS011;57398;52.032;4.376;2022-09-30T00:11:02;8.73;;;4.53;;
70052;SDS011;57398;52.032;4.376;2022-09-30T00:13:32;9.82;;;4.65;;
70052;SDS011;57398;52.032;4.376;2022-09-30T00:16:01;10.63;;;4.60;;
70052;SDS011;57398;52.032;4.376;2022-09-30T00:18:30;9.63;;;4.70;;
70052;SDS011;57398;52.032;4.376;2022-09-30T00:20:58;9.65;;;4.60;;
70052;SDS011;57398;52.032;4.376;2022-09-30T00:23:27;9.50;;;4.45;;
70052;SDS011;57398;52.032;4.376;2022-09-30T00:25:56;9.70;;;4.78;;
70052;SDS011;57398;52.032;4.376;2022-09-30T00:28:24;9.40;;;4.27;;
70052;SDS011;57398;52.032;4.376;2022-09-30T00:30:52;10.93;;;4.47;;
70052;SDS011;57398;52.032;4.376;2022-09-30T00:33:20;11.05;;;5.13;;
70052;SDS011;57398;52.032;4.376;2022-09-30T00:35:47;9.02;;;4.18;;
70052;SDS011;57398;52.032;4.376;2022-09-30T00:38:16;9.27;;;4.18;;
70052;SDS011;57398;52.032;4.376;2022-09-30T00:40:44;8.37;;;4.10;;
70052;SDS011;57398;52.032;4.376;2022-09-30T00:43:12;9.98;;;4.25;;
70052;SDS011;57398;52.032;4.376;2022-09-30T00:45:42;9.63;;;4.30;;
70052;SDS011;57398;52.032;4.376;2022-09-30T00:48:18;8.68;;;4.05;;
70052;SDS011;57398;52.032;4.376;2022-09-30T00:50:51;10.23;;;4.53;;
70052;SDS011;57398;52.032;4.376;2022-09-30T00:53:22;10.07;;;4.37;;
70052;SDS011;57398;52.032;4.376;2022-09-30T00:55:56;9.00;;;4.05;;
70052;SDS011;57398;52.032;4.376;2022-09-30T00:58:27;10.65;;;4.22;;
70052;SDS011;57398;52.032;4.376;2022-09-30T01:01:00;9.07;;;4.13;;
70052;SDS011;57398;52.032;4.376;2022-09-30T01:03:29;11.55;;;4.63;;
70052;SDS011;57398;52.032;4.376;2022-09-30T01:05:59;9.53;;;4.03;;
70052;SDS011;57398;52.032;4.376;2022-09-30T01:08:29;8.35;;;3.95;;
70052;SDS011;57398;52.032;4.376;2022-09-30T01:10:58;9.18;;;4.40;;
70052;SDS011;57398;52.032;4.376;2022-09-30T01:13:31;8.50;;;3.55;;
70052;SDS011;57398;52.032;4.376;2022-09-30T01:16:08;8.38;;;4.20;;
70052;SDS011;57398;52.032;4.376;2022-09-30T01:18:52;8.03;;;3.77;;
70052;SDS011;57398;52.032;4.376;2022-09-30T01:21:39;10.00;;;4.15;;
70052;SDS011;57398;52.032;4.376;2022-09-30T01:27:34;11.38;;;3.90;;
70052;SDS011;57398;52.032;4.376;2022-09-30T01:30:19;9.02;;;4.03;;
70052;SDS011;57398;52.032;4.376;2022-09-30T01:32:55;9.83;;;4.53;;
70052;SDS011;57398;52.032;4.376;2022-09-30T01:35:38;10.00;;;4.40;;
70052;SDS011;57398;52.032;4.376;2022-09-30T01:38:11;9.13;;;3.95;;
70052;SDS011;57398;52.032;4.376;2022-09-30T01:40:45;8.30;;;4.45;;
70052;SDS011;57398;52.032;4.376;2022-09-30T01:43:17;8.52;;;4.10;;
70052;SDS011;57398;52.032;4.376;2022-09-30T01:45:54;9.40;;;4.60;;
70052;SDS011;57398;52.032;4.376;2022-09-30T01:48:27;8.90;;;4.53;;
70052;SDS011;57398;52.032;4.376;2022-09-30T01:51:04;8.90;;;4.35;;
70052;SDS011;57398;52.032;4.376;2022-09-30T01:53:37;9.63;;;3.97;;
70052;SDS011;57398;52.032;4.376;2022-09-30T01:56:12;8.65;;;4.13;;
70052;SDS011;57398;52.032;4.376;2022-09-30T01:58:46;9.50;;;4.33;;
70052;SDS011;57398;52.032;4.376;2022-09-30T02:01:20;9.70;;;4.18;;
70052;SDS011;57398;52.032;4.376;2022-09-30T02:03:52;7.72;;;4.07;;
70052;SDS011;57398;52.032;4.376;2022-09-30T02:06:24;10.82;;;4.35;;
70052;SDS011;57398;52.032;4.376;2022-09-30T02:08:58;8.85;;;3.70;;
70052;SDS011;57398;52.032;4.376;2022-09-30T02:11:31;8.17;;;4.03;;
70052;SDS011;57398;52.032;4.376;2022-09-30T02:14:02;8.65;;;4.18;;
70052;SDS011;57398;52.032;4.376;2022-09-30T02:16:31;9.40;;;4.22;;
70052;SDS011;57398;52.032;4.376;2022-09-30T02:19:04;9.35;;;3.97;;
70052;SDS011;57398;52.032;4.376;2022-09-30T02:21:39;8.70;;;4.22;;
70052;SDS011;57398;52.032;4.376;2022-09-30T02:24:11;9.00;;;4.40;;
70052;SDS011;57398;52.032;4.376;2022-09-30T02:26:44;9.52;;;4.05;;
70052;SDS011;57398;52.032;4.376;2022-09-30T02:29:14;9.15;;;3.95;;
70052;SDS011;57398;52.032;4.376;2022-09-30T02:31:47;8.48;;;3.80;;
70052;SDS011;57398;52.032;4.376;2022-09-30T02:34:19;8.75;;;4.57;;
70052;SDS011;57398;52.032;4.376;2022-09-30T02:36:52;8.23;;;3.83;;
70052;SDS011;57398;52.032;4.376;2022-09-30T02:39:25;7.47;;;3.97;;
70052;SDS011;57398;52.032;4.376;2022-09-30T02:41:59;9.10;;;4.18;;
70052;SDS011;57398;52.032;4.376;2022-09-30T02:44:33;8.02;;;3.92;;
70052;SDS011;57398;52.032;4.376;2022-09-30T02:47:06;8.73;;;3.70;;
70052;SDS011;57398;52.032;4.376;2022-09-30T02:49:42;9.30;;;4.03;;
70052;SDS011;57398;52.032;4.376;2022-09-30T02:52:19;7.65;;;3.63;;
70052;SDS011;57398;52.032;4.376;2022-09-30T02:54:53;8.60;;;3.63;;
70052;SDS011;57398;52.032;4.376;2022-09-30T02:57:32;8.75;;;3.75;;
70052;SDS011;57398;52.032;4.376;2022-09-30T03:00:06;7.82;;;3.58;;
70052;SDS011;57398;52.032;4.376;2022-09-30T03:02:38;8.03;;;3.80;;
70052;SDS011;57398;52.032;4.376;2022-09-30T03:05:08;8.10;;;4.05;;
70052;SDS011;57398;52.032;4.376;2022-09-30T03:07:37;7.93;;;3.80;;
70052;SDS011;57398;52.032;4.376;2022-09-30T03:10:11;11.25;;;4.28;;
70052;SDS011;57398;52.032;4.376;2022-09-30T03:12:41;8.52;;;3.65;;
70052;SDS011;57398;52.032;4.376;2022-09-30T03:15:26;9.00;;;3.77;;
70052;SDS011;57398;52.032;4.376;2022-09-30T03:18:06;8.30;;;3.85;;
70052;SDS011;57398;52.032;4.376;2022-09-30T03:20:47;8.10;;;3.95;;
70052;SDS011;57398;52.032;4.376;2022-09-30T03:26:28;8.93;;;4.22;;
70052;SDS011;57398;52.032;4.376;2022-09-30T03:29:07;8.90;;;3.70;;
70052;SDS011;57398;52.032;4.376;2022-09-30T03:31:41;9.23;;;4.30;;
70052;SDS011;57398;52.032;4.376;2022-09-30T03:34:21;7.78;;;3.75;;
70052;SDS011;57398;52.032;4.376;2022-09-30T03:36:59;8.40;;;3.92;;
70052;SDS011;57398;52.032;4.376;2022-09-30T03:39:33;7.28;;;3.40;;
70052;SDS011;57398;52.032;4.376;2022-09-30T03:42:10;7.37;;;3.50;;
70052;SDS011;57398;52.032;4.376;2022-09-30T03:44:49;9.13;;;4.38;;
70052;SDS011;57398;52.032;4.376;2022-09-30T03:47:25;9.60;;;3.97;;
70052;SDS011;57398;52.032;4.376;2022-09-30T03:49:57;10.13;;;4.28;;
70052;SDS011;57398;52.032;4.376;2022-09-30T03:52:30;9.13;;;3.72;;
70052;SDS011;57398;52.032;4.376;2022-09-30T03:55:00;9.20;;;4.00;;
70052;SDS011;57398;52.032;4.376;2022-09-30T03:57:29;9.18;;;4.70;;
70052;SDS011;57398;52.032;4.376;2022-09-30T03:59:57;9.95;;;4.75;;
70052;SDS011;57398;52.032;4.376;2022-09-30T04:02:26;8.95;;;4.05;;
70052;SDS011;57398;52.032;4.376;2022-09-30T04:04:54;9.70;;;4.38;;
70052;SDS011;57398;52.032;4.376;2022-09-30T04:07:22;9.77;;;4.90;;
70052;SDS011;57398;52.032;4.376;2022-09-30T04:09:51;9.10;;;4.53;;
70052;SDS011;57398;52.032;4.376;2022-09-30T04:12:18;8.85;;;4.55;;
70052;SDS011;57398;52.032;4.376;2022-09-30T04:14:46;9.55;;;4.00;;
70052;SDS011;57398;52.032;4.376;2022-09-30T04:17:14;10.75;;;4.60;;
70052;SDS011;57398;52.032;4.376;2022-09-30T04:19:41;9.07;;;4.23;;
70052;SDS011;57398;52.032;4.376;2022-09-30T04:22:09;11.38;;;4.88;;
70052;SDS011;57398;52.032;4.376;2022-09-30T04:24:37;9.95;;;4.72;;
70052;SDS011;57398;52.032;4.376;2022-09-30T04:27:06;10.45;;;5.50;;
70052;SDS011;57398;52.032;4.376;2022-09-30T04:29:34;12.75;;;6.00;;
70052;SDS011;57398;52.032;4.376;2022-09-30T04:32:02;14.37;;;6.40;;
70052;SDS011;57398;52.032;4.376;2022-09-30T04:34:29;13.95;;;6.10;;
70052;SDS011;57398;52.032;4.376;2022-09-30T04:36:57;15.05;;;6.22;;
70052;SDS011;57398;52.032;4.376;2022-09-30T04:39:25;16.00;;;6.43;;
70052;SDS011;57398;52.032;4.376;2022-09-30T04:41:52;15.98;;;6.57;;
70052;SDS011;57398;52.032;4.376;2022-09-30T04:44:21;12.83;;;5.90;;
70052;SDS011;57398;52.032;4.376;2022-09-30T04:46:49;15.60;;;7.00;;
70052;SDS011;57398;52.032;4.376;2022-09-30T04:49:17;14.63;;;6.75;;
70052;SDS011;57398;52.032;4.376;2022-09-30T04:51:44;14.95;;;6.35;;
70052;SDS011;57398;52.032;4.376;2022-09-30T04:54:12;16.27;;;6.18;;
70052;SDS011;57398;52.032;4.376;2022-09-30T04:56:41;14.90;;;6.37;;
70052;SDS011;57398;52.032;4.376;2022-09-30T04:59:09;13.95;;;6.90;;
70052;SDS011;57398;52.032;4.376;2022-09-30T05:01:38;17.08;;;6.97;;
70052;SDS011;57398;52.032;4.376;2022-09-30T05:04:07;15.35;;;7.65;;
70052;SDS011;57398;52.032;4.376;2022-09-30T05:06:35;16.98;;;7.70;;
70052;SDS011;57398;52.032;4.376;2022-09-30T05:09:02;18.13;;;7.93;;
70052;SDS011;57398;52.032;4.376;2022-09-30T05:11:30;18.98;;;8.35;;
70052;SDS011;57398;52.032;4.376;2022-09-30T05:13:57;17.25;;;8.02;;
70052;SDS011;57398;52.032;4.376;2022-09-30T05:16:25;19.50;;;8.80;;
70052;SDS011;57398;52.032;4.376;2022-09-30T05:18:54;18.45;;;7.90;;
70052;SDS011;57398;52.032;4.376;2022-09-30T05:21:22;17.37;;;8.10;;
70052;SDS011;57398;52.032;4.376;2022-09-30T05:23:49;17.02;;;7.35;;
70052;SDS011;57398;52.032;4.376;2022-09-30T05:26:17;18.60;;;7.95;;
70052;SDS011;57398;52.032;4.376;2022-09-30T05:28:44;15.60;;;7.10;;
70052;SDS011;57398;52.032;4.376;2022-09-30T05:31:11;23.27;;;7.85;;
70052;SDS011;57398;52.032;4.376;2022-09-30T05:33:39;16.03;;;7.37;;
70052;SDS011;57398;52.032;4.376;2022-09-30T05:36:09;16.95;;;7.82;;
70052;SDS011;57398;52.032;4.376;2022-09-30T05:38:38;18.70;;;8.57;;
70052;SDS011;57398;52.032;4.376;2022-09-30T05:41:05;19.08;;;8.55;;
70052;SDS011;57398;52.032;4.376;2022-09-30T05:43:33;18.52;;;8.10;;
70052;SDS011;57398;52.032;4.376;2022-09-30T05:46:01;18.47;;;8.27;;
70052;SDS011;57398;52.032;4.376;2022-09-30T05:48:28;20.45;;;7.97;;
70052;SDS011;57398;52.032;4.376;2022-09-30T05:50:56;22.13;;;8.40;;
70052;SDS011;57398;52.032;4.376;2022-09-30T05:53:28;21.45;;;8.73;;
70052;SDS011;57398;52.032;4.376;2022-09-30T05:55:57;21.85;;;9.10;;
70052;SDS011;57398;52.032;4.376;2022-09-30T05:58:24;18.20;;;8.10;;
70052;SDS011;57398;52.032;4.376;2022-09-30T06:00:52;21.63;;;8.73;;
70052;SDS011;57398;52.032;4.376;2022-09-30T06:03:19;22.35;;;9.63;;
70052;SDS011;57398;52.032;4.376;2022-09-30T06:05:47;24.05;;;10.95;;
70052;SDS011;57398;52.032;4.376;2022-09-30T06:08:14;26.67;;;10.65;;
70052;SDS011;57398;52.032;4.376;2022-09-30T06:10:43;25.70;;;11.07;;
70052;SDS011;57398;52.032;4.376;2022-09-30T06:13:11;28.65;;;11.35;;
70052;SDS011;57398;52.032;4.376;2022-09-30T06:15:40;30.55;;;12.63;;
70052;SDS011;57398;52.032;4.376;2022-09-30T06:18:07;33.10;;;13.13;;
70052;SDS011;57398;52.032;4.376;2022-09-30T06:20:35;40.22;;;15.07;;
70052;SDS011;57398;52.032;4.376;2022-09-30T06:23:02;35.43;;;14.43;;
70052;SDS011;57398;52.032;4.376;2022-09-30T06:25:30;36.45;;;14.90;;
70052;SDS011;57398;52.032;4.376;2022-09-30T06:27:59;37.67;;;15.15;;
70052;SDS011;57398;52.032;4.376;2022-09-30T06:30:26;46.92;;;16.67;;
70052;SDS011;57398;52.032;4.376;2022-09-30T06:33:00;40.65;;;15.65;;
70052;SDS011;57398;52.032;4.376;2022-09-30T06:35:27;38.97;;;15.00;;
70052;SDS011;57398;52.032;4.376;2022-09-30T06:37:55;40.17;;;15.43;;
70052;SDS011;57398;52.032;4.376;2022-09-30T06:40:22;39.92;;;15.75;;
70052;SDS011;57398;52.032;4.376;2022-09-30T06:42:51;38.42;;;15.32;;
70052;SDS011;57398;52.032;4.376;2022-09-30T06:45:25;38.83;;;14.70;;
70052;SDS011;57398;52.032;4.376;2022-09-30T06:47:59;37.43;;;15.17;;
70052;SDS011;57398;52.032;4.376;2022-09-30T06:50:26;33.20;;;14.10;;
70052;SDS011;57398;52.032;4.376;2022-09-30T06:52:55;32.95;;;14.45;;
70052;SDS011;57398;52.032;4.376;2022-09-30T06:55:23;29.77;;;13.27;;
70052;SDS011;57398;52.032;4.376;2022-09-30T06:57:52;29.10;;;12.43;;
70052;SDS011;57398;52.032;4.376;2022-09-30T07:00:20;32.90;;;12.83;;
70052;SDS011;57398;52.032;4.376;2022-09-30T07:02:49;25.27;;;11.63;;
70052;SDS011;57398;52.032;4.376;2022-09-30T07:05:17;27.15;;;11.23;;
70052;SDS011;57398;52.032;4.376;2022-09-30T07:07:44;28.35;;;11.48;;
70052;SDS011;57398;52.032;4.376;2022-09-30T07:10:12;25.45;;;11.05;;
70052;SDS011;57398;52.032;4.376;2022-09-30T07:12:39;25.27;;;11.00;;
70052;SDS011;57398;52.032;4.376;2022-09-30T07:15:07;27.48;;;11.30;;
70052;SDS011;57398;52.032;4.376;2022-09-30T07:17:39;25.75;;;9.80;;
70052;SDS011;57398;52.032;4.376;2022-09-30T07:20:08;22.17;;;10.63;;
70052;SDS011;57398;52.032;4.376;2022-09-30T07:22:35;24.05;;;10.57;;
70052;SDS011;57398;52.032;4.376;2022-09-30T07:25:03;27.13;;;10.33;;
70052;SDS011;57398;52.032;4.376;2022-09-30T07:27:32;24.75;;;9.82;;
70052;SDS011;57398;52.032;4.376;2022-09-30T07:29:59;24.95;;;9.55;;
70052;SDS011;57398;52.032;4.376;2022-09-30T07:32:36;28.60;;;10.70;;
70052;SDS011;57398;52.032;4.376;2022-09-30T07:35:04;26.90;;;10.48;;
70052;SDS011;57398;52.032;4.376;2022-09-30T07:37:32;25.90;;;10.63;;
70052;SDS011;57398;52.032;4.376;2022-09-30T07:40:02;26.42;;;10.38;;
70052;SDS011;57398;52.032;4.376;2022-09-30T07:42:30;24.10;;;9.98;;
70052;SDS011;57398;52.032;4.376;2022-09-30T07:44:57;29.48;;;9.70;;
70052;SDS011;57398;52.032;4.376;2022-09-30T07:47:25;24.88;;;9.75;;
70052;SDS011;57398;52.032;4.376;2022-09-30T07:49:53;25.73;;;9.73;;
70052;SDS011;57398;52.032;4.376;2022-09-30T07:52:20;27.95;;;10.68;;
70052;SDS011;57398;52.032;4.376;2022-09-30T07:54:49;22.83;;;10.07;;
70052;SDS011;57398;52.032;4.376;2022-09-30T07:57:18;21.08;;;9.30;;
70052;SDS011;57398;52.032;4.376;2022-09-30T07:59:46;24.73;;;9.55;;
70052;SDS011;57398;52.032;4.376;2022-09-30T08:02:14;20.43;;;9.30;;
70052;SDS011;57398;52.032;4.376;2022-09-30T08:04:42;20.52;;;8.98;;
70052;SDS011;57398;52.032;4.376;2022-09-30T08:07:10;16.92;;;8.07;;
70052;SDS011;57398;52.032;4.376;2022-09-30T08:09:38;16.85;;;7.93;;
70052;SDS011;57398;52.032;4.376;2022-09-30T08:12:07;16.70;;;7.00;;
70052;SDS011;57398;52.032;4.376;2022-09-30T08:14:34;14.10;;;6.87;;
70052;SDS011;57398;52.032;4.376;2022-09-30T08:17:02;14.27;;;6.43;;
70052;SDS011;57398;52.032;4.376;2022-09-30T08:19:30;12.93;;;6.07;;
70052;SDS011;57398;52.032;4.376;2022-09-30T08:21:58;10.55;;;5.40;;
70052;SDS011;57398;52.032;4.376;2022-09-30T08:24:31;12.82;;;4.90;;
70052;SDS011;57398;52.032;4.376;2022-09-30T08:26:58;9.57;;;4.83;;
70052;SDS011;57398;52.032;4.376;2022-09-30T08:29:27;10.55;;;4.53;;
70052;SDS011;57398;52.032;4.376;2022-09-30T08:32:14;8.43;;;3.63;;
70052;SDS011;57398;52.032;4.376;2022-09-30T08:34:42;11.63;;;3.55;;
70052;SDS011;57398;52.032;4.376;2022-09-30T08:37:09;7.93;;;3.33;;
70052;SDS011;57398;52.032;4.376;2022-09-30T08:39:37;7.07;;;2.93;;
70052;SDS011;57398;52.032;4.376;2022-09-30T08:42:08;7.57;;;3.40;;
70052;SDS011;57398;52.032;4.376;2022-09-30T08:45:02;7.80;;;2.70;;
70052;SDS011;57398;52.032;4.376;2022-09-30T08:47:37;6.05;;;2.67;;
70052;SDS011;57398;52.032;4.376;2022-09-30T08:50:10;5.55;;;2.33;;
70052;SDS011;57398;52.032;4.376;2022-09-30T08:52:40;5.27;;;2.17;;
70052;SDS011;57398;52.032;4.376;2022-09-30T08:55:15;5.85;;;2.40;;
70052;SDS011;57398;52.032;4.376;2022-09-30T08:57:44;6.03;;;1.88;;
70052;SDS011;57398;52.032;4.376;2022-09-30T09:00:14;4.97;;;2.00;;
70052;SDS011;57398;52.032;4.376;2022-09-30T09:02:43;4.80;;;2.05;;
70052;SDS011;57398;52.032;4.376;2022-09-30T09:05:13;4.00;;;1.50;;
70052;SDS011;57398;52.032;4.376;2022-09-30T09:07:45;6.00;;;1.67;;
70052;SDS011;57398;52.032;4.376;2022-09-30T09:10:19;3.55;;;1.33;;
70052;SDS011;57398;52.032;4.376;2022-09-30T09:12:52;3.60;;;1.30;;
70052;SDS011;57398;52.032;4.376;2022-09-30T09:15:29;3.05;;;1.10;;
70052;SDS011;57398;52.032;4.376;2022-09-30T09:18:07;4.18;;;1.40;;
70052;SDS011;57398;52.032;4.376;2022-09-30T09:20:52;3.13;;;1.13;;
70052;SDS011;57398;52.032;4.376;2022-09-30T09:23:19;4.15;;;1.15;;
70052;SDS011;57398;52.032;4.376;2022-09-30T09:25:48;2.97;;;1.20;;
70052;SDS011;57398;52.032;4.376;2022-09-30T09:28:22;3.08;;;1.23;;
70052;SDS011;57398;52.032;4.376;2022-09-30T09:30:53;3.70;;;1.25;;
70052;SDS011;57398;52.032;4.376;2022-09-30T09:33:23;5.03;;;1.53;;
70052;SDS011;57398;52.032;4.376;2022-09-30T09:35:53;3.83;;;1.35;;
70052;SDS011;57398;52.032;4.376;2022-09-30T09:38:26;4.60;;;1.80;;
70052;SDS011;57398;52.032;4.376;2022-09-30T09:41:03;4.63;;;2.00;;
70052;SDS011;57398;52.032;4.376;2022-09-30T09:43:37;4.18;;;1.60;;
70052;SDS011;57398;52.032;4.376;2022-09-30T09:46:12;4.27;;;1.40;;
70052;SDS011;57398;52.032;4.376;2022-09-30T09:48:41;3.42;;;1.50;;
70052;SDS011;57398;52.032;4.376;2022-09-30T09:51:11;2.90;;;1.00;;
70052;SDS011;57398;52.032;4.376;2022-09-30T09:53:44;3.65;;;1.23;;
70052;SDS011;57398;52.032;4.376;2022-09-30T09:56:15;3.38;;;1.08;;
70052;SDS011;57398;52.032;4.376;2022-09-30T09:59:03;3.27;;;1.00;;
70052;SDS011;57398;52.032;4.376;2022-09-30T10:01:32;2.58;;;1.05;;
70052;SDS011;57398;52.032;4.376;2022-09-30T10:04:05;3.50;;;1.20;;
70052;SDS011;57398;52.032;4.376;2022-09-30T10:06:41;2.80;;;1.00;;
70052;SDS011;57398;52.032;4.376;2022-09-30T10:09:10;5.85;;;1.20;;
70052;SDS011;57398;52.032;4.376;2022-09-30T10:11:47;4.37;;;0.90;;
70052;SDS011;57398;52.032;4.376;2022-09-30T10:14:15;2.47;;;0.90;;
70052;SDS011;57398;52.032;4.376;2022-09-30T10:16:45;5.35;;;1.10;;
70052;SDS011;57398;52.032;4.376;2022-09-30T10:19:17;3.45;;;1.00;;
70052;SDS011;57398;52.032;4.376;2022-09-30T10:21:46;3.33;;;1.17;;
70052;SDS011;57398;52.032;4.376;2022-09-30T10:24:25;3.07;;;1.20;;
70052;SDS011;57398;52.032;4.376;2022-09-30T10:26:54;3.08;;;1.20;;
70052;SDS011;57398;52.032;4.376;2022-09-30T10:29:25;2.92;;;1.02;;
70052;SDS011;57398;52.032;4.376;2022-09-30T10:31:54;3.50;;;0.88;;
70052;SDS011;57398;52.032;4.376;2022-09-30T10:34:25;3.00;;;0.85;;
70052;SDS011;57398;52.032;4.376;2022-09-30T10:36:54;3.40;;;1.10;;
70052;SDS011;57398;52.032;4.376;2022-09-30T10:39:23;2.63;;;0.82;;
70052;SDS011;57398;52.032;4.376;2022-09-30T10:41:59;3.38;;;1.02;;
70052;SDS011;57398;52.032;4.376;2022-09-30T10:44:27;3.90;;;1.40;;
70052;SDS011;57398;52.032;4.376;2022-09-30T10:46:59;3.55;;;1.42;;
70052;SDS011;57398;52.032;4.376;2022-09-30T10:49:28;5.20;;;2.10;;
70052;SDS011;57398;52.032;4.376;2022-09-30T10:51:58;4.63;;;2.22;;
70052;SDS011;57398;52.032;4.376;2022-09-30T10:54:33;5.38;;;2.30;;
70052;SDS011;57398;52.032;4.376;2022-09-30T10:57:01;5.22;;;2.95;;
70052;SDS011;57398;52.032;4.376;2022-09-30T10:59:30;6.18;;;2.80;;
70052;SDS011;57398;52.032;4.376;2022-09-30T11:02:15;4.87;;;2.50;;
70052;SDS011;57398;52.032;4.376;2022-09-30T11:04:45;4.95;;;2.60;;
70052;SDS011;57398;52.032;4.376;2022-09-30T11:07:15;4.68;;;2.30;;
70052;SDS011;57398;52.032;4.376;2022-09-30T11:09:48;4.38;;;2.10;;
70052;SDS011;57398;52.032;4.376;2022-09-30T11:12:18;5.65;;;2.45;;
70052;SDS011;57398;52.032;4.376;2022-09-30T11:14:48;4.97;;;2.20;;
70052;SDS011;57398;52.032;4.376;2022-09-30T11:17:24;4.97;;;2.40;;
70052;SDS011;57398;52.032;4.376;2022-09-30T11:19:55;5.93;;;2.40;;
70052;SDS011;57398;52.032;4.376;2022-09-30T11:22:28;5.30;;;2.30;;
70052;SDS011;57398;52.032;4.376;2022-09-30T11:24:57;4.97;;;2.35;;
70052;SDS011;57398;52.032;4.376;2022-09-30T11:27:27;5.47;;;2.47;;
70052;SDS011;57398;52.032;4.376;2022-09-30T11:30:00;6.70;;;2.50;;
70052;SDS011;57398;52.032;4.376;2022-09-30T11:32:36;4.38;;;1.90;;
70052;SDS011;57398;52.032;4.376;2022-09-30T11:35:08;4.68;;;2.00;;
70052;SDS011;57398;52.032;4.376;2022-09-30T11:37:48;4.53;;;1.85;;
70052;SDS011;57398;52.032;4.376;2022-09-30T11:40:23;6.07;;;2.50;;
70052;SDS011;57398;52.032;4.376;2022-09-30T11:42:58;4.53;;;2.20;;
70052;SDS011;57398;52.032;4.376;2022-09-30T11:45:35;6.32;;;2.03;;
70052;SDS011;57398;52.032;4.376;2022-09-30T11:48:14;5.15;;;2.03;;
70052;SDS011;57398;52.032;4.376;2022-09-30T11:50:47;5.45;;;1.90;;
70052;SDS011;57398;52.032;4.376;2022-09-30T11:53:18;4.75;;;1.90;;
70052;SDS011;57398;52.032;4.376;2022-09-30T11:55:57;5.43;;;2.00;;
70052;SDS011;57398;52.032;4.376;2022-09-30T11:58:30;4.47;;;1.80;;
70052;SDS011;57398;52.032;4.376;2022-09-30T12:01:11;4.78;;;1.90;;
70052;SDS011;57398;52.032;4.376;2022-09-30T12:03:42;4.72;;;1.80;;
70052;SDS011;57398;52.032;4.376;2022-09-30T12:06:13;5.03;;;1.73;;
70052;SDS011;57398;52.032;4.376;2022-09-30T12:08:43;5.43;;;2.20;;
70052;SDS011;57398;52.032;4.376;2022-09-30T12:11:13;5.35;;;2.20;;
70052;SDS011;57398;52.032;4.376;2022-09-30T12:13:43;5.07;;;2.42;;
70052;SDS011;57398;52.032;4.376;2022-09-30T12:16:15;5.93;;;2.60;;
70052;SDS011;57398;52.032;4.376;2022-09-30T12:18:47;6.85;;;3.40;;
70052;SDS011;57398;52.032;4.376;2022-09-30T12:21:18;7.63;;;3.17;;
70052;SDS011;57398;52.032;4.376;2022-09-30T12:23:49;6.50;;;2.97;;
70052;SDS011;57398;52.032;4.376;2022-09-30T12:26:21;5.97;;;3.08;;
70052;SDS011;57398;52.032;4.376;2022-09-30T12:28:49;6.75;;;3.60;;
70052;SDS011;57398;52.032;4.376;2022-09-30T12:31:41;5.88;;;3.00;;
70052;SDS011;57398;52.032;4.376;2022-09-30T12:34:20;5.77;;;2.93;;
70052;SDS011;57398;52.032;4.376;2022-09-30T12:36:53;6.43;;;2.85;;
70052;SDS011;57398;52.032;4.376;2022-09-30T12:39:41;6.20;;;2.58;;
70052;SDS011;57398;52.032;4.376;2022-09-30T12:47:51;5.23;;;2.17;;
70052;SDS011;57398;52.032;4.376;2022-09-30T12:50:21;4.72;;;2.17;;
70052;SDS011;57398;52.032;4.376;2022-09-30T12:52:50;5.97;;;2.65;;
70052;SDS011;57398;52.032;4.376;2022-09-30T12:55:20;5.43;;;2.90;;
70052;SDS011;57398;52.032;4.376;2022-09-30T12:57:48;7.22;;;2.50;;
70052;SDS011;57398;52.032;4.376;2022-09-30T13:00:17;6.10;;;2.60;;
70052;SDS011;57398;52.032;4.376;2022-09-30T13:02:46;4.60;;;2.25;;
70052;SDS011;57398;52.032;4.376;2022-09-30T13:08:09;5.10;;;2.08;;
70052;SDS011;57398;52.032;4.376;2022-09-30T13:10:42;4.05;;;2.08;;
70052;SDS011;57398;52.032;4.376;2022-09-30T13:13:15;4.53;;;1.70;;
70052;SDS011;57398;52.032;4.376;2022-09-30T13:15:46;4.75;;;1.50;;
70052;SDS011;57398;52.032;4.376;2022-09-30T13:21:15;4.05;;;1.90;;
70052;SDS011;57398;52.032;4.376;2022-09-30T13:23:45;3.55;;;1.58;;
70052;SDS011;57398;52.032;4.376;2022-09-30T13:32:02;5.90;;;1.75;;
70052;SDS011;57398;52.032;4.376;2022-09-30T13:34:30;3.60;;;1.42;;
70052;SDS011;57398;52.032;4.376;2022-09-30T13:36:58;3.65;;;1.50;;
70052;SDS011;57398;52.032;4.376;2022-09-30T13:39:27;4.00;;;1.60;;
70052;SDS011;57398;52.032;4.376;2022-09-30T13:42:02;4.78;;;1.33;;
70052;SDS011;57398;52.032;4.376;2022-09-30T13:44:32;3.00;;;1.30;;
70052;SDS011;57398;52.032;4.376;2022-09-30T13:47:04;4.90;;;2.10;;
70052;SDS011;57398;52.032;4.376;2022-09-30T13:49:37;4.78;;;2.10;;
70052;SDS011;57398;52.032;4.376;2022-09-30T13:52:07;4.30;;;1.83;;
70052;SDS011;57398;52.032;4.376;2022-09-30T13:54:42;4.45;;;1.98;;
70052;SDS011;57398;52.032;4.376;2022-09-30T13:57:14;4.53;;;2.20;;
70052;SDS011;57398;52.032;4.376;2022-09-30T13:59:50;5.22;;;2.40;;
70052;SDS011;57398;52.032;4.376;2022-09-30T14:02:31;4.80;;;2.33;;
70052;SDS011;57398;52.032;4.376;2022-09-30T14:05:09;5.00;;;2.50;;
70052;SDS011;57398;52.032;4.376;2022-09-30T14:07:44;6.43;;;2.70;;
70052;SDS011;57398;52.032;4.376;2022-09-30T14:10:17;4.85;;;2.15;;
70052;SDS011;57398;52.032;4.376;2022-09-30T14:12:50;6.15;;;2.70;;
70052;SDS011;57398;52.032;4.376;2022-09-30T14:15:31;5.45;;;2.75;;
70052;SDS011;57398;52.032;4.376;2022-09-30T14:20:58;5.32;;;2.80;;
70052;SDS011;57398;52.032;4.376;2022-09-30T14:23:29;6.25;;;2.70;;
70052;SDS011;57398;52.032;4.376;2022-09-30T14:25:58;5.60;;;3.08;;
70052;SDS011;57398;52.032;4.376;2022-09-30T14:28:31;6.53;;;3.20;;
70052;SDS011;57398;52.032;4.376;2022-09-30T14:31:00;5.80;;;3.20;;
70052;SDS011;57398;52.032;4.376;2022-09-30T14:33:38;6.13;;;2.90;;
70052;SDS011;57398;52.032;4.376;2022-09-30T14:36:10;6.82;;;3.35;;
70052;SDS011;57398;52.032;4.376;2022-09-30T14:38:37;5.97;;;3.15;;
70052;SDS011;57398;52.032;4.376;2022-09-30T14:41:07;6.43;;;3.80;;
70052;SDS011;57398;52.032;4.376;2022-09-30T14:43:41;6.87;;;3.50;;
70052;SDS011;57398;52.032;4.376;2022-09-30T14:46:13;7.70;;;4.05;;
70052;SDS011;57398;52.032;4.376;2022-09-30T14:48:42;7.97;;;4.50;;
70052;SDS011;57398;52.032;4.376;2022-09-30T14:51:11;6.72;;;3.78;;
70052;SDS011;57398;52.032;4.376;2022-09-30T14:53:40;7.35;;;4.20;;
70052;SDS011;57398;52.032;4.376;2022-09-30T14:56:17;7.07;;;4.27;;
70052;SDS011;57398;52.032;4.376;2022-09-30T14:58:45;9.07;;;4.60;;
70052;SDS011;57398;52.032;4.376;2022-09-30T15:01:17;7.45;;;4.38;;
70052;SDS011;57398;52.032;4.376;2022-09-30T15:03:48;9.02;;;4.45;;
70052;SDS011;57398;52.032;4.376;2022-09-30T15:06:18;8.27;;;4.43;;
70052;SDS011;57398;52.032;4.376;2022-09-30T15:08:45;8.93;;;4.80;;
70052;SDS011;57398;52.032;4.376;2022-09-30T15:11:18;7.70;;;4.50;;
70052;SDS011;57398;52.032;4.376;2022-09-30T15:13:46;8.43;;;5.05;;
70052;SDS011;57398;52.032;4.376;2022-09-30T15:16:21;9.68;;;4.78;;
70052;SDS011;57398;52.032;4.376;2022-09-30T15:18:49;8.45;;;5.10;;
70052;SDS011;57398;52.032;4.376;2022-09-30T15:21:16;8.80;;;4.97;;
70052;SDS011;57398;52.032;4.376;2022-09-30T15:23:45;7.78;;;4.95;;
70052;SDS011;57398;52.032;4.376;2022-09-30T15:26:14;9.77;;;5.18;;
70052;SDS011;57398;52.032;4.376;2022-09-30T15:28:43;8.73;;;5.32;;
70052;SDS011;57398;52.032;4.376;2022-09-30T15:31:17;8.50;;;5.57;;
70052;SDS011;57398;52.032;4.376;2022-09-30T15:33:45;8.37;;;4.90;;